createdAt,value
2018-06-03T00:01:07.574Z,17.85
2018-06-03T00:03:35.010Z,17.69
2018-06-03T00:06:03.430Z,17.45
2018-06-03T00:08:30.858Z,17.47
2018-06-03T00:10:58.322Z,17.69
2018-06-03T00:13:25.755Z,17.88
2018-06-03T00:15:53.212Z,17.82
2018-06-03T00:18:20.646Z,17.87
2018-06-03T00:21:00.802Z,18.08
2018-06-03T00:23:28.231Z,17.87
2018-06-03T00:25:56.587Z,17.89
2018-06-03T00:28:24.020Z,17.83
2018-06-03T00:30:51.478Z,18.07
2018-06-03T00:33:18.906Z,18.18
2018-06-03T00:35:58.266Z,18.10
2018-06-03T00:38:25.681Z,18.27
2018-06-03T00:40:53.137Z,18.24
2018-06-03T00:43:20.562Z,18.16
2018-06-03T00:45:48.017Z,18.09
2018-06-03T00:48:15.469Z,18.02
2018-06-03T00:50:43.572Z,17.70
2018-06-03T00:53:11.001Z,17.82
2018-06-03T00:55:38.865Z,17.92
2018-06-03T00:58:06.307Z,17.80
2018-06-03T01:00:33.785Z,18.03
2018-06-03T01:03:01.233Z,18.25
2018-06-03T01:05:28.694Z,18.33
2018-06-03T01:07:56.129Z,18.38
2018-06-03T01:10:23.546Z,18.27
2018-06-03T01:12:51.034Z,18.27
2018-06-03T01:15:18.465Z,18.36
2018-06-03T01:17:45.910Z,18.34
2018-06-03T01:20:13.342Z,18.18
2018-06-03T01:22:40.796Z,17.82
2018-06-03T01:25:08.230Z,17.93
2018-06-03T01:27:35.676Z,17.97
2018-06-03T01:30:03.099Z,18.16
2018-06-03T01:32:30.552Z,18.21
2018-06-03T01:34:57.986Z,18.20
2018-06-03T01:37:25.433Z,18.26
2018-06-03T01:39:52.879Z,18.33
2018-06-03T01:42:20.324Z,18.39
2018-06-03T01:44:47.742Z,18.27
2018-06-03T01:47:15.197Z,18.24
2018-06-03T01:49:43.659Z,18.17
2018-06-03T01:52:11.118Z,18.02
2018-06-03T01:54:39.577Z,18.05
2018-06-03T01:57:07.001Z,17.83
2018-06-03T01:59:41.935Z,17.56
2018-06-03T02:02:11.452Z,17.50
2018-06-03T02:04:38.898Z,17.39
2018-06-03T02:07:06.319Z,17.65
2018-06-03T02:09:34.670Z,17.57
2018-06-03T02:12:03.035Z,17.46
2018-06-03T02:14:31.429Z,17.49
2018-06-03T02:17:03.923Z,17.67
2018-06-03T02:19:33.306Z,17.82
2018-06-03T02:22:02.695Z,17.82
2018-06-03T02:24:30.151Z,17.81
2018-06-03T02:26:57.573Z,17.69
2018-06-03T02:29:25.994Z,17.90
2018-06-03T02:31:54.350Z,18.22
2018-06-03T02:34:21.816Z,18.18
2018-06-03T02:36:49.815Z,18.09
2018-06-03T02:39:18.280Z,18.34
2018-06-03T02:41:45.718Z,17.77
2018-06-03T02:44:13.182Z,17.67
2018-06-03T02:46:41.561Z,17.85
2018-06-03T02:49:09.949Z,17.80
2018-06-03T02:51:37.880Z,17.64
2018-06-03T02:54:07.205Z,17.72
2018-06-03T02:56:43.172Z,17.96
2018-06-03T02:59:11.996Z,17.88
2018-06-03T03:01:41.129Z,17.98
2018-06-03T03:04:09.620Z,17.89
2018-06-03T03:06:45.493Z,18.01
2018-06-03T03:09:13.935Z,17.95
2018-06-03T03:11:42.765Z,18.11
2018-06-03T03:14:11.751Z,18.02
2018-06-03T03:16:40.390Z,17.95
2018-06-03T03:19:08.888Z,18.16
2018-06-03T03:21:37.240Z,17.92
2018-06-03T03:24:04.662Z,18.01
2018-06-03T03:26:32.119Z,17.92
2018-06-03T03:28:59.550Z,17.88
2018-06-03T03:31:27.031Z,17.90
2018-06-03T03:33:54.461Z,17.84
2018-06-03T03:36:21.925Z,17.84
2018-06-03T03:38:49.358Z,17.67
2018-06-03T03:41:16.838Z,17.66
2018-06-03T03:43:44.266Z,17.85
2018-06-03T03:46:12.721Z,17.77
2018-06-03T03:48:40.173Z,17.74
2018-06-03T03:51:07.620Z,17.58
2018-06-03T03:53:35.074Z,17.30
2018-06-03T03:56:03.165Z,17.42
2018-06-03T03:58:30.626Z,17.64
2018-06-03T04:00:58.077Z,17.65
2018-06-03T04:03:25.929Z,17.67
2018-06-03T04:05:53.375Z,17.68
2018-06-03T04:08:20.839Z,17.89
2018-06-03T04:10:48.261Z,18.08
2018-06-03T04:13:15.743Z,17.78
2018-06-03T04:15:43.133Z,17.86
2018-06-03T04:18:10.597Z,18.11
2018-06-03T04:20:38.030Z,17.96
2018-06-03T04:23:05.483Z,18.06
2018-06-03T04:25:32.934Z,17.92
2018-06-03T04:28:00.404Z,17.76
2018-06-03T04:30:27.846Z,17.82
2018-06-03T04:32:55.303Z,17.79
2018-06-03T04:35:22.721Z,17.96
2018-06-03T04:37:50.173Z,17.71
2018-06-03T04:40:17.593Z,17.89
2018-06-03T04:42:45.062Z,17.98
2018-06-03T04:45:12.490Z,17.81
2018-06-03T04:47:39.913Z,17.81
2018-06-03T04:50:07.407Z,17.87
2018-06-03T04:52:34.819Z,18.02
2018-06-03T04:55:02.338Z,17.75
2018-06-03T04:57:29.697Z,17.49
2018-06-03T04:59:57.152Z,17.74
2018-06-03T05:02:24.587Z,17.58
2018-06-03T05:04:52.946Z,17.85
2018-06-03T05:07:20.365Z,18.02
2018-06-03T05:09:47.823Z,17.86
2018-06-03T05:12:15.238Z,17.71
2018-06-03T05:14:42.693Z,17.96
2018-06-03T05:17:10.109Z,17.95
2018-06-03T05:19:37.565Z,18.11
2018-06-03T05:22:04.985Z,18.44
2018-06-03T05:24:32.461Z,18.36
2018-06-03T05:26:59.875Z,18.29
2018-06-03T05:29:27.305Z,18.38
2018-06-03T05:31:54.753Z,18.30
2018-06-03T05:34:22.181Z,18.46
2018-06-03T05:36:49.650Z,18.23
2018-06-03T05:39:17.073Z,18.22
2018-06-03T05:41:44.523Z,18.33
2018-06-03T05:44:11.945Z,18.48
2018-06-03T05:46:39.390Z,18.64
2018-06-03T05:49:06.817Z,18.27
2018-06-03T05:51:37.902Z,18.06
2018-06-03T05:54:07.283Z,18.54
2018-06-03T05:56:34.753Z,18.64
2018-06-03T05:59:02.182Z,18.88
2018-06-03T06:01:30.596Z,19.14
2018-06-03T06:03:58.957Z,18.94
2018-06-03T06:06:26.413Z,19.19
2018-06-03T06:08:53.839Z,19.50
2018-06-03T06:11:21.297Z,19.50
2018-06-03T06:13:48.717Z,20.00
2018-06-03T06:16:16.169Z,19.76
2018-06-03T06:18:43.590Z,20.03
2018-06-03T06:21:11.070Z,19.86
2018-06-03T06:23:38.505Z,20.00
2018-06-03T06:26:05.940Z,20.21
2018-06-03T06:28:34.385Z,20.36
2018-06-03T06:31:01.814Z,20.23
2018-06-03T06:33:29.269Z,20.29
2018-06-03T06:35:57.616Z,19.80
2018-06-03T06:38:26.037Z,19.71
2018-06-03T06:40:53.462Z,19.84
2018-06-03T06:43:22.809Z,19.73
2018-06-03T06:45:51.133Z,19.83
2018-06-03T06:48:19.523Z,20.42
2018-06-03T06:50:46.952Z,20.05
2018-06-03T06:53:14.409Z,20.18
2018-06-03T06:55:41.839Z,20.17
2018-06-03T06:58:09.294Z,20.05
2018-06-03T07:00:37.063Z,20.32
2018-06-03T07:03:05.533Z,20.39
2018-06-03T07:05:33.972Z,20.31
2018-06-03T07:08:01.408Z,20.69
2018-06-03T07:10:28.862Z,20.86
2018-06-03T07:12:56.290Z,20.52
2018-06-03T07:15:23.741Z,20.81
2018-06-03T07:17:51.186Z,21.06
2018-06-03T07:20:18.637Z,21.76
2018-06-03T07:22:46.070Z,20.73
2018-06-03T07:25:13.527Z,20.60
2018-06-03T07:27:42.914Z,20.29
2018-06-03T07:30:10.367Z,21.01
2018-06-03T07:32:38.753Z,20.79
2018-06-03T07:35:06.226Z,21.16
2018-06-03T07:37:34.590Z,21.02
2018-06-03T07:40:02.070Z,21.65
2018-06-03T07:42:29.522Z,21.21
2018-06-03T07:44:56.981Z,21.09
2018-06-03T07:47:24.414Z,20.87
2018-06-03T07:49:51.845Z,21.12
2018-06-03T07:52:19.305Z,21.03
2018-06-03T07:54:46.742Z,21.50
2018-06-03T07:57:14.210Z,20.96
2018-06-03T07:59:41.635Z,21.51
2018-06-03T08:02:09.081Z,21.25
2018-06-03T08:04:36.516Z,21.79
2018-06-03T08:07:03.969Z,21.31
2018-06-03T08:09:31.391Z,21.01
2018-06-03T08:11:58.833Z,21.07
2018-06-03T08:14:26.265Z,21.47
2018-06-03T08:16:53.691Z,21.13
2018-06-03T08:19:21.181Z,21.52
2018-06-03T08:21:48.606Z,22.03
2018-06-03T08:24:16.984Z,22.16
2018-06-03T08:26:45.306Z,22.57
2018-06-03T08:29:12.753Z,22.04
2018-06-03T08:31:41.207Z,21.53
2018-06-03T08:34:08.661Z,21.69
2018-06-03T08:36:40.917Z,21.68
2018-06-03T08:39:09.352Z,21.11
2018-06-03T08:41:36.743Z,20.40
2018-06-03T08:44:04.190Z,21.04
2018-06-03T08:46:35.393Z,20.37
2018-06-03T08:49:02.869Z,20.92
2018-06-03T08:51:32.225Z,20.65
2018-06-03T08:54:05.755Z,20.41
2018-06-03T08:56:33.190Z,20.45
2018-06-03T08:59:00.658Z,20.53
2018-06-03T09:01:31.581Z,21.34
2018-06-03T09:03:59.041Z,20.61
2018-06-03T09:06:28.446Z,20.55
2018-06-03T09:08:55.899Z,20.91
2018-06-03T09:11:29.304Z,20.88
2018-06-03T09:13:57.693Z,20.49
2018-06-03T09:16:25.155Z,21.18
2018-06-03T09:19:00.853Z,21.08
2018-06-03T09:21:30.290Z,21.09
2018-06-03T09:23:57.728Z,20.91
2018-06-03T09:26:25.203Z,21.04
2018-06-03T09:28:52.672Z,20.88
2018-06-03T09:31:20.135Z,20.88
2018-06-03T09:33:48.589Z,21.09
2018-06-03T09:36:16.076Z,20.67
2018-06-03T09:38:43.501Z,20.43
2018-06-03T09:41:10.973Z,20.98
2018-06-03T09:43:38.397Z,20.87
2018-06-03T09:46:05.869Z,20.73
2018-06-03T09:48:33.446Z,21.44
2018-06-03T09:51:00.881Z,21.96
2018-06-03T09:53:29.281Z,22.39
2018-06-03T09:55:56.697Z,21.92
2018-06-03T09:58:24.145Z,21.27
2018-06-03T10:00:51.569Z,21.30
2018-06-03T10:03:20.014Z,21.35
2018-06-03T10:05:47.439Z,21.38
2018-06-03T10:08:14.878Z,20.76
2018-06-03T10:10:42.384Z,21.15
2018-06-03T10:13:09.837Z,21.68
2018-06-03T10:15:38.196Z,22.55
2018-06-03T10:18:05.797Z,22.23
2018-06-03T10:20:33.236Z,22.61
2018-06-03T10:23:00.699Z,22.34
2018-06-03T10:25:28.124Z,21.54
2018-06-03T10:27:55.575Z,21.60
2018-06-03T10:30:23.066Z,21.89
2018-06-03T10:32:50.524Z,22.29
2018-06-03T10:35:17.939Z,22.99
2018-06-03T10:37:45.407Z,22.63
2018-06-03T10:40:12.822Z,22.49
2018-06-03T10:42:40.241Z,21.80
2018-06-03T10:45:08.624Z,22.79
2018-06-03T10:47:36.096Z,22.11
2018-06-03T10:50:03.642Z,21.76
2018-06-03T10:52:31.129Z,22.37
2018-06-03T10:55:09.206Z,21.35
2018-06-03T10:57:36.625Z,21.38
2018-06-03T11:00:04.070Z,21.94
2018-06-03T11:02:31.490Z,22.34
2018-06-03T11:04:58.943Z,21.87
2018-06-03T11:07:26.358Z,22.03
2018-06-03T11:09:58.758Z,21.37
2018-06-03T11:12:26.175Z,21.29
2018-06-03T11:14:53.621Z,21.83
2018-06-03T11:17:22.166Z,21.63
2018-06-03T11:19:50.108Z,21.95
2018-06-03T11:22:17.566Z,22.38
2018-06-03T11:24:45.018Z,22.53
2018-06-03T11:27:12.452Z,21.81
2018-06-03T11:29:40.066Z,21.95
2018-06-03T11:32:07.509Z,22.53
2018-06-03T11:34:34.930Z,22.41
2018-06-03T11:37:02.397Z,22.51
2018-06-03T11:39:30.802Z,23.04
2018-06-03T11:41:58.305Z,23.01
2018-06-03T11:44:25.676Z,24.21
2018-06-03T11:46:53.175Z,23.70
2018-06-03T11:49:20.595Z,23.80
2018-06-03T11:51:48.085Z,23.61
2018-06-03T11:54:15.503Z,23.01
2018-06-03T11:56:54.771Z,22.20
2018-06-03T11:59:29.895Z,22.79
2018-06-03T12:01:57.370Z,22.13
2018-06-03T12:04:24.790Z,22.13
2018-06-03T12:06:52.253Z,21.72
2018-06-03T12:09:19.682Z,21.44
2018-06-03T12:11:47.138Z,21.59
2018-06-03T12:14:14.655Z,21.95
2018-06-03T12:16:42.101Z,22.05
2018-06-03T12:19:09.535Z,21.96
2018-06-03T12:21:36.981Z,21.44
2018-06-03T12:24:05.374Z,21.75
2018-06-03T12:26:32.834Z,21.69
2018-06-03T12:29:00.263Z,21.30
2018-06-03T12:31:28.692Z,21.07
2018-06-03T12:33:56.155Z,20.80
2018-06-03T12:36:23.592Z,20.86
2018-06-03T12:38:51.077Z,21.15
2018-06-03T12:41:19.421Z,21.45
2018-06-03T12:43:46.877Z,20.86
2018-06-03T12:46:14.320Z,20.58
2018-06-03T12:48:42.733Z,21.03
2018-06-03T12:51:10.167Z,20.55
2018-06-03T12:53:37.621Z,20.58
2018-06-03T12:56:05.059Z,20.36
2018-06-03T12:58:32.501Z,20.78
2018-06-03T13:01:01.935Z,20.79
2018-06-03T13:03:29.382Z,21.64
2018-06-03T13:05:56.801Z,21.80
2018-06-03T13:08:25.290Z,21.78
2018-06-03T13:10:52.709Z,21.63
2018-06-03T13:13:20.129Z,21.46
2018-06-03T13:15:47.584Z,21.20
2018-06-03T13:18:15.005Z,21.21
2018-06-03T13:20:42.453Z,21.53
2018-06-03T13:23:09.874Z,21.89
2018-06-03T13:25:37.333Z,22.00
2018-06-03T13:28:04.801Z,21.81
2018-06-03T13:30:32.366Z,21.75
2018-06-03T13:32:59.793Z,21.42
2018-06-03T13:35:27.245Z,22.03
2018-06-03T13:37:54.741Z,22.21
2018-06-03T13:40:22.201Z,22.04
2018-06-03T13:42:49.653Z,22.48
2018-06-03T13:45:17.075Z,22.18
2018-06-03T13:47:44.554Z,22.82
2018-06-03T13:50:12.027Z,22.25
2018-06-03T13:52:39.485Z,22.73
2018-06-03T13:55:06.910Z,24.14
2018-06-03T13:57:34.396Z,24.10
2018-06-03T14:00:01.823Z,24.38
2018-06-03T14:02:29.261Z,24.79
2018-06-03T14:04:56.687Z,24.13
2018-06-03T14:07:24.122Z,25.21
2018-06-03T14:09:51.534Z,27.03
2018-06-03T14:12:19.941Z,26.55
2018-06-03T14:14:47.363Z,27.28
2018-06-03T14:17:14.798Z,28.20
2018-06-03T14:19:42.209Z,30.28
2018-06-03T14:22:09.670Z,26.84
2018-06-03T14:24:37.089Z,26.02
2018-06-03T14:27:04.501Z,25.74
2018-06-03T14:29:31.937Z,25.53
2018-06-03T14:31:59.446Z,25.84
2018-06-03T14:34:26.841Z,27.06
2018-06-03T14:36:54.314Z,30.52
2018-06-03T14:39:21.757Z,29.68
2018-06-03T14:41:49.165Z,26.54
2018-06-03T14:44:50.282Z,25.41
2018-06-03T14:47:18.634Z,26.85
2018-06-03T14:49:46.954Z,31.57
2018-06-03T14:52:15.314Z,28.88
2018-06-03T14:54:43.906Z,31.17
2018-06-03T14:57:12.289Z,30.81
2018-06-03T14:59:41.537Z,28.42
2018-06-03T15:02:09.873Z,28.74
2018-06-03T15:04:38.189Z,32.78
2018-06-03T15:07:06.531Z,30.95
2018-06-03T15:09:35.866Z,29.91
2018-06-03T15:12:04.201Z,28.38
2018-06-03T15:14:32.598Z,28.92
2018-06-03T15:17:00.889Z,26.30
2018-06-03T15:19:29.498Z,27.46
2018-06-03T15:22:07.462Z,26.83
2018-06-03T15:24:36.841Z,25.19
2018-06-03T15:27:06.331Z,24.94
2018-06-03T15:29:34.706Z,25.10
2018-06-03T15:32:03.086Z,24.38
2018-06-03T15:34:31.438Z,24.01
2018-06-03T15:36:59.764Z,24.67
2018-06-03T15:39:28.142Z,24.49
2018-06-03T15:41:56.600Z,24.40
2018-06-03T15:44:25.878Z,25.66
2018-06-03T15:46:54.181Z,25.44
2018-06-03T15:49:22.546Z,26.18
2018-06-03T15:51:50.850Z,26.76
2018-06-03T15:54:19.193Z,26.49
2018-06-03T15:56:47.493Z,25.43
2018-06-03T15:59:15.749Z,25.29
2018-06-03T16:01:44.094Z,25.46
2018-06-03T16:04:12.438Z,25.00
2018-06-03T16:06:40.800Z,23.94
2018-06-03T16:09:09.198Z,24.11
2018-06-03T16:11:37.573Z,25.31
2018-06-03T16:14:05.852Z,24.54
2018-06-03T16:16:34.102Z,24.24
2018-06-03T16:19:02.426Z,24.35
2018-06-03T16:21:30.757Z,25.32
2018-06-03T16:23:59.069Z,24.90
2018-06-03T16:26:27.453Z,24.47
2018-06-03T16:28:55.838Z,25.12
2018-06-03T16:31:24.209Z,24.50
2018-06-03T16:33:52.686Z,24.25
2018-06-03T16:36:21.049Z,24.65
2018-06-03T16:38:49.509Z,24.70
2018-06-03T16:41:17.818Z,27.95
2018-06-03T16:43:46.223Z,31.86
2018-06-03T16:46:14.565Z,33.07
2018-06-03T16:48:42.991Z,33.01
2018-06-03T16:51:11.277Z,35.28
2018-06-03T16:53:39.570Z,35.46
2018-06-03T16:56:07.876Z,36.08
2018-06-03T16:58:36.246Z,32.91
2018-06-03T17:01:04.731Z,31.01
2018-06-03T17:03:33.073Z,29.40
2018-06-03T17:06:01.358Z,33.33
2018-06-03T17:08:29.842Z,32.13
2018-06-03T17:10:58.130Z,26.47
2018-06-03T17:13:26.494Z,24.81
2018-06-03T17:15:54.785Z,23.64
2018-06-03T17:18:23.132Z,22.78
2018-06-03T17:20:51.449Z,27.38
2018-06-03T17:23:19.835Z,30.01
2018-06-03T17:25:48.291Z,30.32
2018-06-03T17:28:16.547Z,32.17
2018-06-03T17:30:44.843Z,28.46
2018-06-03T17:33:13.201Z,29.64
2018-06-03T17:35:41.639Z,29.31
2018-06-03T17:38:09.977Z,26.88
2018-06-03T17:40:38.337Z,25.01
2018-06-03T17:43:06.664Z,23.39
2018-06-03T17:45:34.978Z,22.66
2018-06-03T17:48:03.293Z,22.65
2018-06-03T17:50:31.669Z,22.37
2018-06-03T17:53:00.041Z,22.97
2018-06-03T17:55:28.498Z,22.78
2018-06-03T17:57:56.903Z,22.80
2018-06-03T18:00:25.264Z,22.49
2018-06-03T18:02:53.621Z,22.45
2018-06-03T18:05:21.911Z,21.96
2018-06-03T18:07:50.205Z,21.42
2018-06-03T18:10:18.564Z,21.41
2018-06-03T18:12:46.877Z,21.45
2018-06-03T18:15:16.176Z,21.54
2018-06-03T18:17:48.677Z,21.58
2018-06-03T18:20:17.131Z,21.76
2018-06-03T18:22:46.806Z,22.12
2018-06-03T18:25:16.134Z,21.78
2018-06-03T18:27:44.554Z,21.50
2018-06-03T18:30:13.950Z,21.77
2018-06-03T18:32:42.264Z,21.77
2018-06-03T18:35:10.558Z,21.40
2018-06-03T18:37:38.918Z,21.09
2018-06-03T18:40:07.256Z,21.52
2018-06-03T18:42:35.544Z,21.64
2018-06-03T18:45:03.970Z,21.35
2018-06-03T18:47:32.439Z,21.30
2018-06-03T18:50:00.737Z,20.85
2018-06-03T18:52:29.030Z,20.66
2018-06-03T18:54:57.395Z,20.61
2018-06-03T18:57:25.634Z,20.48
2018-06-03T18:59:53.947Z,20.59
2018-06-03T19:02:22.237Z,19.96
2018-06-03T19:04:50.798Z,19.99
2018-06-03T19:07:19.146Z,19.99
2018-06-03T19:09:47.653Z,20.03
2018-06-03T19:12:15.917Z,20.05
2018-06-03T19:14:44.214Z,20.17
2018-06-03T19:17:12.560Z,20.14
2018-06-03T19:19:40.817Z,19.96
2018-06-03T19:22:09.105Z,19.98
2018-06-03T19:24:37.363Z,19.82
2018-06-03T19:27:07.738Z,19.66
2018-06-03T19:29:35.997Z,19.48
2018-06-03T19:32:04.281Z,19.51
2018-06-03T19:34:32.553Z,19.50
2018-06-03T19:37:00.838Z,19.49
2018-06-03T19:39:29.204Z,19.71
2018-06-03T19:41:57.494Z,19.77
2018-06-03T19:44:26.870Z,19.83
2018-06-03T19:46:55.168Z,19.75
2018-06-03T19:49:23.483Z,19.91
2018-06-03T19:51:51.729Z,19.79
2018-06-03T19:54:20.046Z,19.58
2018-06-03T19:56:48.457Z,19.64
2018-06-03T19:59:17.831Z,19.39
2018-06-03T20:01:46.249Z,19.18
2018-06-03T20:04:16.569Z,19.20
2018-06-03T20:06:46.004Z,19.18
2018-06-03T20:09:14.306Z,19.12
2018-06-03T20:11:43.962Z,18.98
2018-06-03T20:14:12.371Z,18.81
2018-06-03T20:16:40.730Z,18.90
2018-06-03T20:19:09.145Z,18.94
2018-06-03T20:21:37.489Z,19.00
2018-06-03T20:24:05.787Z,18.83
2018-06-03T20:26:34.114Z,18.73
2018-06-03T20:29:02.430Z,18.79
2018-06-03T20:31:30.770Z,18.62
2018-06-03T20:33:59.073Z,18.44
2018-06-03T20:36:27.433Z,18.44
2018-06-03T20:38:55.832Z,18.43
2018-06-03T20:41:24.226Z,18.34
2018-06-03T20:43:52.590Z,18.48
2018-06-03T20:46:20.941Z,18.52
2018-06-03T20:48:49.245Z,18.31
2018-06-03T20:51:17.497Z,18.24
2018-06-03T20:53:45.789Z,18.19
2018-06-03T20:56:14.254Z,18.19
2018-06-03T20:58:42.546Z,18.19
2018-06-03T21:01:11.141Z,18.19
2018-06-03T21:03:39.779Z,18.11
2018-06-03T21:06:08.175Z,17.95
2018-06-03T21:08:36.559Z,17.92
2018-06-03T21:11:04.865Z,17.83
2018-06-03T21:13:33.114Z,17.92
2018-06-03T21:16:01.444Z,17.98
2018-06-03T21:18:29.709Z,17.94
2018-06-03T21:20:58.039Z,17.85
2018-06-03T21:23:26.301Z,17.80
2018-06-03T21:25:54.605Z,17.66
2018-06-03T21:28:22.879Z,17.51
2018-06-03T21:30:51.761Z,17.48
2018-06-03T21:33:21.146Z,17.57
2018-06-03T21:35:49.435Z,17.43
2018-06-03T21:38:17.702Z,17.32
2018-06-03T21:40:47.157Z,17.22
2018-06-03T21:43:15.561Z,17.27
2018-06-03T21:45:43.858Z,17.21
2018-06-03T21:48:12.157Z,17.15
2018-06-03T21:50:40.521Z,17.06
2018-06-03T21:53:08.837Z,17.11
2018-06-03T21:55:39.138Z,17.22
2018-06-03T21:58:07.622Z,17.37
2018-06-03T22:00:35.998Z,17.33
2018-06-03T22:03:05.710Z,17.35
2018-06-03T22:05:33.966Z,17.46
2018-06-03T22:08:02.346Z,17.51
2018-06-03T22:10:30.727Z,17.65
2018-06-03T22:12:58.993Z,17.55
2018-06-03T22:15:27.258Z,17.64
2018-06-03T22:17:55.583Z,17.77
2018-06-03T22:20:23.861Z,17.76
2018-06-03T22:22:52.145Z,17.71
2018-06-03T22:25:20.475Z,17.64
2018-06-03T22:27:48.762Z,17.66
2018-06-03T22:30:17.009Z,17.83
2018-06-03T22:32:45.343Z,17.89
2018-06-03T22:35:15.618Z,18.02
2018-06-03T22:37:43.889Z,18.08
2018-06-03T22:40:13.238Z,18.14
2018-06-03T22:42:41.508Z,18.21
2018-06-03T22:45:09.751Z,18.24
2018-06-03T22:47:38.050Z,18.25
2018-06-03T22:50:06.376Z,18.34
2018-06-03T22:52:34.826Z,18.24
2018-06-03T22:55:03.094Z,18.22
2018-06-03T22:57:44.200Z,18.14
2018-06-03T23:00:31.134Z,18.22
2018-06-03T23:03:04.798Z,18.23
2018-06-03T23:05:33.077Z,18.29
2018-06-03T23:08:01.374Z,18.51
2018-06-03T23:10:29.669Z,18.51
2018-06-03T23:12:57.961Z,18.53
2018-06-03T23:15:26.229Z,18.47
2018-06-03T23:17:54.703Z,18.38
2018-06-03T23:20:23.003Z,18.50
2018-06-03T23:22:51.377Z,18.51
2018-06-03T23:25:19.686Z,18.49
2018-06-03T23:27:47.942Z,18.11
2018-06-03T23:30:16.313Z,18.00
2018-06-03T23:32:44.574Z,18.10
2018-06-03T23:35:12.853Z,17.81
2018-06-03T23:37:41.106Z,17.81
2018-06-03T23:40:10.549Z,17.81
2018-06-03T23:42:38.799Z,17.91
2018-06-03T23:45:07.086Z,17.91
2018-06-03T23:47:35.373Z,17.77
2018-06-03T23:50:03.709Z,17.96
2018-06-03T23:52:31.970Z,17.84
2018-06-03T23:55:00.225Z,17.82
2018-06-03T23:57:28.529Z,17.84
2018-06-03T23:59:57.882Z,17.67
